createdAt,value
2019-02-22T00:00:41.586Z,10.33
2019-02-22T00:03:16.587Z,20.63
2019-02-22T00:05:50.070Z,15.47
2019-02-22T00:08:24.081Z,12.87
2019-02-22T00:10:58.593Z,13.10
2019-02-22T00:13:32.606Z,20.47
2019-02-22T00:16:05.588Z,15.17
2019-02-22T00:18:39.609Z,11.53
2019-02-22T00:21:13.612Z,15.70
2019-02-22T00:23:48.616Z,19.53
2019-02-22T00:26:22.613Z,15.97
2019-02-22T00:28:56.616Z,15.47
2019-02-22T00:31:32.222Z,13.17
2019-02-22T00:34:08.620Z,17.07
2019-02-22T00:36:44.202Z,15.53
2019-02-22T00:39:19.174Z,23.10
2019-02-22T00:41:53.614Z,13.73
2019-02-22T00:44:26.618Z,11.20
2019-02-22T00:46:59.611Z,12.13
2019-02-22T00:49:32.616Z,22.87
2019-02-22T00:52:05.520Z,6.53
2019-02-22T00:54:38.630Z,24.07
2019-02-22T00:57:12.619Z,15.23
2019-02-22T00:59:46.319Z,16.83
2019-02-22T01:02:20.619Z,23.07
2019-02-22T01:04:53.613Z,15.23
2019-02-22T01:07:27.615Z,16.67
2019-02-22T01:13:42.621Z,14.80
2019-02-22T01:19:57.101Z,10.73
2019-02-22T01:22:30.613Z,12.60
2019-02-22T01:25:05.120Z,9.20
2019-02-22T01:27:39.125Z,16.93
2019-02-22T01:30:12.613Z,14.87
2019-02-22T01:32:46.621Z,19.07
2019-02-22T01:35:20.621Z,18.40
2019-02-22T01:37:53.614Z,18.77
2019-02-22T01:40:27.619Z,15.57
2019-02-22T01:43:00.613Z,16.57
2019-02-22T01:45:34.625Z,17.13
2019-02-22T01:48:08.131Z,25.90
2019-02-22T01:50:41.616Z,21.57
2019-02-22T01:53:14.624Z,15.80
2019-02-22T01:55:48.616Z,17.50
2019-02-22T01:58:21.630Z,15.33
2019-02-22T02:00:55.617Z,22.20
2019-02-22T02:03:28.622Z,17.60
2019-02-22T02:06:02.617Z,17.27
2019-02-22T02:08:35.618Z,11.10
2019-02-22T02:11:10.135Z,13.00
2019-02-22T02:13:45.618Z,18.53
2019-02-22T02:16:20.391Z,14.93
2019-02-22T02:18:54.633Z,14.17
2019-02-22T02:21:28.642Z,14.83
2019-02-22T02:24:03.034Z,11.07
2019-02-22T02:26:38.620Z,12.90
2019-02-22T02:29:12.283Z,18.23
2019-02-22T02:31:45.617Z,14.83
2019-02-22T02:34:20.095Z,22.67
2019-02-22T02:36:54.619Z,14.97
2019-02-22T02:39:28.619Z,17.63
2019-02-22T02:42:02.125Z,17.57
2019-02-22T02:44:36.655Z,26.63
2019-02-22T02:47:09.622Z,20.73
2019-02-22T02:49:42.618Z,31.47
2019-02-22T02:52:16.321Z,13.27
2019-02-22T02:54:52.626Z,21.47
2019-02-22T02:57:28.238Z,17.90
2019-02-22T03:00:02.455Z,19.47
2019-02-22T03:02:36.044Z,19.60
2019-02-22T03:05:10.257Z,17.80
2019-02-22T03:07:44.888Z,14.97
2019-02-22T03:10:18.637Z,16.83
2019-02-22T03:12:52.634Z,16.23
2019-02-22T03:15:26.090Z,9.37
2019-02-22T03:18:00.631Z,15.40
2019-02-22T03:20:35.132Z,21.90
2019-02-22T03:23:08.625Z,13.30
2019-02-22T03:25:41.626Z,12.67
2019-02-22T03:28:15.631Z,24.37
2019-02-22T03:30:48.638Z,13.30
2019-02-22T03:33:22.315Z,16.40
2019-02-22T03:35:56.136Z,15.73
2019-02-22T03:38:30.332Z,13.97
2019-02-22T03:41:04.632Z,13.00
2019-02-22T03:47:07.259Z,13.83
2019-02-22T03:49:41.639Z,13.20
2019-02-22T03:52:39.229Z,13.07
2019-02-22T03:55:14.263Z,19.77
2019-02-22T03:57:48.273Z,16.67
2019-02-22T04:00:22.075Z,21.47
2019-02-22T04:02:56.641Z,14.80
2019-02-22T04:05:30.094Z,10.73
2019-02-22T04:08:07.132Z,10.50
2019-02-22T04:13:56.650Z,16.73
2019-02-22T04:16:29.656Z,19.07
2019-02-22T04:22:31.664Z,14.00
2019-02-22T04:25:06.259Z,29.20
2019-02-22T04:27:40.063Z,15.73
2019-02-22T04:30:14.282Z,14.90
2019-02-22T04:32:48.290Z,13.43
2019-02-22T04:35:21.659Z,17.37
2019-02-22T04:37:54.665Z,18.83
2019-02-22T04:40:28.269Z,19.70
2019-02-22T04:43:02.277Z,19.73
2019-02-22T04:45:35.660Z,14.87
2019-02-22T04:48:09.276Z,15.30
2019-02-22T04:50:43.285Z,13.60
2019-02-22T04:53:17.292Z,17.47
2019-02-22T04:55:51.663Z,23.13
2019-02-22T04:58:25.663Z,22.73
2019-02-22T05:01:00.141Z,10.97
2019-02-22T05:03:35.668Z,13.77
2019-02-22T05:06:09.673Z,14.13
2019-02-22T05:08:44.218Z,11.80
2019-02-22T05:11:19.252Z,18.63
2019-02-22T05:13:58.179Z,21.00
2019-02-22T05:16:33.748Z,17.47
2019-02-22T05:19:08.766Z,19.63
2019-02-22T05:21:44.521Z,18.93
2019-02-22T05:24:21.716Z,7.10
2019-02-22T05:26:56.225Z,16.63
2019-02-22T05:29:33.307Z,20.30
2019-02-22T05:32:09.555Z,14.00
2019-02-22T05:34:43.357Z,17.40
2019-02-22T05:37:17.983Z,20.90
2019-02-22T05:39:52.404Z,22.13
2019-02-22T05:42:28.541Z,17.77
2019-02-22T05:45:01.735Z,30.40
2019-02-22T05:47:35.459Z,17.73
2019-02-22T05:50:09.737Z,22.83
2019-02-22T05:52:43.735Z,23.33
2019-02-22T05:55:17.486Z,14.83
2019-02-22T05:57:51.491Z,20.43
2019-02-22T06:00:25.744Z,27.73
2019-02-22T06:02:59.743Z,14.43
2019-02-22T06:05:32.779Z,23.50
2019-02-22T06:11:48.408Z,12.03
2019-02-22T06:14:22.778Z,18.93
2019-02-22T06:16:56.332Z,21.63
2019-02-22T06:23:13.359Z,16.97
2019-02-22T06:29:30.407Z,14.07
2019-02-22T06:32:04.857Z,17.67
2019-02-22T06:34:40.259Z,28.07
2019-02-22T06:37:14.679Z,19.73
2019-02-22T06:43:21.475Z,25.70
2019-02-22T06:45:56.958Z,19.20
2019-02-22T06:48:31.982Z,17.17
2019-02-22T06:51:07.837Z,18.27
2019-02-22T06:53:41.609Z,11.10
2019-02-22T06:56:17.183Z,23.37
2019-02-22T06:58:51.676Z,16.73
2019-02-22T07:01:27.180Z,18.43
2019-02-22T07:04:01.746Z,22.03
2019-02-22T07:06:35.966Z,15.50
2019-02-22T07:09:10.784Z,11.30
2019-02-22T07:11:58.179Z,14.43
2019-02-22T07:14:33.184Z,17.60
2019-02-22T07:17:10.019Z,20.73
2019-02-22T07:19:46.691Z,18.73
2019-02-22T07:25:45.186Z,13.17
2019-02-22T07:28:18.690Z,26.73
2019-02-22T07:34:09.718Z,21.03
2019-02-22T07:36:45.983Z,26.27
2019-02-22T07:39:27.868Z,17.23
2019-02-22T07:42:02.180Z,14.47
2019-02-22T07:44:41.138Z,19.47
2019-02-22T07:47:16.968Z,20.77
2019-02-22T07:49:51.795Z,15.93
2019-02-22T07:52:25.808Z,22.60
2019-02-22T07:55:01.873Z,13.87
2019-02-22T07:57:35.667Z,19.97
2019-02-22T08:00:11.725Z,34.93
2019-02-22T08:02:47.043Z,18.67
2019-02-22T08:08:39.424Z,19.77
2019-02-22T08:11:14.056Z,18.20
2019-02-22T08:17:30.676Z,20.27
2019-02-22T08:23:48.122Z,14.10
2019-02-22T08:30:05.776Z,20.67
2019-02-22T08:32:42.213Z,18.00
2019-02-22T08:35:18.212Z,19.20
2019-02-22T08:37:52.716Z,17.97
2019-02-22T08:40:27.218Z,20.57
2019-02-22T08:43:03.231Z,21.13
2019-02-22T08:45:41.715Z,19.17
2019-02-22T08:48:17.225Z,23.43
2019-02-22T08:50:53.269Z,17.13
2019-02-22T08:56:56.992Z,25.43
2019-02-22T09:03:02.093Z,27.17
2019-02-22T09:09:08.688Z,21.70
2019-02-22T09:11:43.720Z,21.13
2019-02-22T09:14:19.298Z,24.70
2019-02-22T09:16:54.226Z,25.33
2019-02-22T09:19:29.441Z,22.33
2019-02-22T09:22:06.218Z,20.07
2019-02-22T09:24:42.224Z,30.30
2019-02-22T09:30:48.223Z,13.03
2019-02-22T09:36:27.227Z,23.93
2019-02-22T09:39:02.734Z,19.47
2019-02-22T09:41:38.994Z,20.77
2019-02-22T09:47:42.517Z,26.90
2019-02-22T09:53:36.260Z,19.83
2019-02-22T09:56:12.056Z,14.93
2019-02-22T09:58:47.096Z,26.93
2019-02-22T10:01:24.238Z,19.60
2019-02-22T10:04:04.745Z,29.73
2019-02-22T10:10:11.773Z,17.90
2019-02-22T10:12:47.243Z,13.10
2019-02-22T10:15:23.851Z,21.70
2019-02-22T10:17:58.679Z,21.43
2019-02-22T10:20:34.736Z,26.87
2019-02-22T10:23:03.630Z,24.00
2019-02-22T10:25:37.258Z,29.13
2019-02-22T10:28:17.774Z,18.13
2019-02-22T10:30:48.252Z,21.07
2019-02-22T10:36:45.100Z,27.83
2019-02-22T10:39:16.274Z,12.90
2019-02-22T10:41:51.873Z,27.50
2019-02-22T10:44:26.492Z,41.73
2019-02-22T10:47:02.765Z,29.87
2019-02-22T10:53:10.985Z,23.57
2019-02-22T10:59:14.710Z,26.27
2019-02-22T11:05:18.873Z,20.60
2019-02-22T11:07:57.563Z,22.83
2019-02-22T11:10:32.812Z,15.43
2019-02-22T11:13:07.281Z,27.30
2019-02-22T11:15:42.052Z,28.63
2019-02-22T11:21:45.288Z,20.93
2019-02-22T11:24:20.011Z,23.33
2019-02-22T11:26:53.298Z,21.50
2019-02-22T11:29:27.319Z,24.47
2019-02-22T11:32:01.296Z,22.57
2019-02-22T11:34:35.292Z,28.87
2019-02-22T11:37:08.295Z,19.63
2019-02-22T11:39:41.295Z,26.57
2019-02-22T11:42:15.808Z,20.53
2019-02-22T11:44:49.304Z,19.77
2019-02-22T11:47:22.799Z,27.57
2019-02-22T11:49:56.298Z,18.50
2019-02-22T11:52:30.314Z,23.30
2019-02-22T11:55:04.310Z,27.43
2019-02-22T11:57:37.423Z,27.03
2019-02-22T12:00:15.920Z,26.67
2019-02-22T12:02:49.928Z,25.00
2019-02-22T12:05:23.936Z,27.90
2019-02-22T12:11:27.319Z,17.10
2019-02-22T12:14:01.877Z,32.53
2019-02-22T12:16:35.323Z,22.70
2019-02-22T12:22:50.328Z,20.03
2019-02-22T12:25:25.915Z,18.60
2019-02-22T12:28:00.947Z,18.93
2019-02-22T12:30:37.829Z,25.83
2019-02-22T12:33:14.102Z,19.70
2019-02-22T12:39:29.892Z,28.43
2019-02-22T12:42:03.356Z,28.80
2019-02-22T12:44:37.329Z,27.30
2019-02-22T12:50:52.332Z,20.33
2019-02-22T12:53:25.884Z,21.13
2019-02-22T12:56:00.334Z,17.93
2019-02-22T12:58:34.341Z,19.13
2019-02-22T13:01:09.753Z,20.77
2019-02-22T13:03:43.338Z,17.33
2019-02-22T13:06:18.799Z,25.53
2019-02-22T13:08:52.808Z,21.43
2019-02-22T13:11:27.838Z,18.30
2019-02-22T13:14:03.078Z,19.03
2019-02-22T13:16:36.354Z,25.53
2019-02-22T13:19:10.362Z,23.37
2019-02-22T13:21:44.354Z,27.00
2019-02-22T13:24:17.428Z,21.30
2019-02-22T13:26:51.281Z,28.50
2019-02-22T13:29:24.354Z,23.13
2019-02-22T13:31:58.357Z,41.53
2019-02-22T13:34:31.360Z,23.20
2019-02-22T13:37:05.359Z,21.33
2019-02-22T13:39:41.126Z,21.20
2019-02-22T13:42:15.370Z,25.10
2019-02-22T13:44:50.785Z,21.63
2019-02-22T13:47:27.367Z,21.17
2019-02-22T13:50:01.932Z,21.87
2019-02-22T13:52:36.364Z,24.93
2019-02-22T13:55:10.369Z,17.37
2019-02-22T13:57:46.156Z,28.23
2019-02-22T14:00:22.468Z,24.20
2019-02-22T14:02:57.365Z,19.33
2019-02-22T14:05:33.721Z,20.83
2019-02-22T14:08:09.395Z,19.40
2019-02-22T14:10:45.834Z,22.10
2019-02-22T14:13:21.413Z,23.90
2019-02-22T14:15:57.371Z,17.53
2019-02-22T14:18:31.374Z,18.53
2019-02-22T14:21:05.383Z,19.90
2019-02-22T14:23:39.973Z,18.47
2019-02-22T14:26:16.031Z,20.10
2019-02-22T14:28:50.869Z,18.40
2019-02-22T14:31:26.371Z,22.50
2019-02-22T14:34:00.370Z,22.00
2019-02-22T14:36:34.495Z,16.10
2019-02-22T14:39:09.387Z,19.43
2019-02-22T14:41:45.002Z,19.10
2019-02-22T14:48:29.695Z,25.10
2019-02-22T14:51:06.981Z,17.33
2019-02-22T14:56:50.232Z,16.10
2019-02-22T15:02:54.384Z,19.63
2019-02-22T15:08:59.389Z,19.60
2019-02-22T15:11:34.389Z,19.00
2019-02-22T15:14:09.400Z,15.30
2019-02-22T15:17:02.023Z,23.80
2019-02-22T15:19:38.394Z,21.80
2019-02-22T15:22:14.341Z,27.20
2019-02-22T15:24:48.394Z,20.20
2019-02-22T15:30:52.354Z,19.80
2019-02-22T15:36:46.412Z,19.60
2019-02-22T15:39:20.447Z,23.27
2019-02-22T15:41:55.008Z,18.13
2019-02-22T15:44:29.028Z,19.37
2019-02-22T15:47:11.328Z,16.70
2019-02-22T15:49:39.291Z,23.00
2019-02-22T15:52:13.914Z,22.50
2019-02-22T15:54:48.412Z,19.70
2019-02-22T15:57:25.186Z,22.23
2019-02-22T15:59:59.837Z,23.07
2019-02-22T16:02:35.865Z,19.10
2019-02-22T16:05:13.999Z,21.27
2019-02-22T16:07:50.261Z,25.23
2019-02-22T16:10:27.434Z,19.23
2019-02-22T16:13:02.429Z,22.70
2019-02-22T16:15:36.451Z,24.50
2019-02-22T16:18:14.905Z,23.97
2019-02-22T16:20:52.429Z,20.87
2019-02-22T16:23:26.431Z,23.87
2019-02-22T16:26:00.001Z,23.50
2019-02-22T16:28:34.452Z,21.13
2019-02-22T16:31:08.839Z,18.40
2019-02-22T16:33:42.850Z,19.60
2019-02-22T16:36:18.431Z,24.87
2019-02-22T16:38:52.437Z,21.77
2019-02-22T16:45:11.444Z,33.07
2019-02-22T16:47:46.452Z,43.33
2019-02-22T16:50:21.046Z,25.93
2019-02-22T16:52:57.444Z,27.03
2019-02-22T16:55:32.142Z,37.57
2019-02-22T16:58:06.963Z,21.47
2019-02-22T17:00:41.443Z,21.17
2019-02-22T17:03:15.443Z,19.20
2019-02-22T17:05:50.456Z,20.50
2019-02-22T17:08:25.663Z,20.00
2019-02-22T17:11:03.449Z,27.47
2019-02-22T17:13:39.424Z,23.80
2019-02-22T17:16:16.922Z,24.90
2019-02-22T17:18:51.450Z,21.83
2019-02-22T17:21:27.464Z,20.80
2019-02-22T17:24:02.008Z,13.63
2019-02-22T17:26:36.457Z,18.20
2019-02-22T17:35:32.454Z,14.87
2019-02-22T17:38:06.454Z,18.27
2019-02-22T17:40:40.454Z,14.70
2019-02-22T17:43:16.055Z,13.47
2019-02-22T17:45:51.293Z,20.33
2019-02-22T17:48:24.893Z,12.10
2019-02-22T17:50:59.113Z,15.10
2019-02-22T17:53:32.919Z,13.57
2019-02-22T17:56:07.947Z,18.40
2019-02-22T17:58:42.458Z,19.93
2019-02-22T18:01:15.467Z,14.87
2019-02-22T18:03:49.464Z,13.33
2019-02-22T18:06:24.458Z,17.63
2019-02-22T18:08:57.469Z,12.97
2019-02-22T18:14:35.468Z,17.90
2019-02-22T18:20:50.903Z,21.43
2019-02-22T18:23:25.117Z,18.30
2019-02-22T18:25:59.469Z,17.33
2019-02-22T18:28:33.956Z,16.37
2019-02-22T18:31:08.992Z,17.20
2019-02-22T18:37:11.483Z,18.63
2019-02-22T18:39:45.482Z,19.13
2019-02-22T18:45:37.341Z,20.87
2019-02-22T18:48:11.481Z,14.23
2019-02-22T18:54:14.492Z,20.70
2019-02-22T19:00:16.488Z,17.40
2019-02-22T19:02:50.147Z,17.57
2019-02-22T19:05:23.951Z,17.43
2019-02-22T19:11:26.038Z,15.77
2019-02-22T19:14:00.045Z,19.97
2019-02-22T19:20:16.505Z,19.97
2019-02-22T19:26:19.495Z,15.70
2019-02-22T19:28:52.976Z,22.83
2019-02-22T19:31:27.502Z,18.57
2019-02-22T19:34:00.502Z,17.50
2019-02-22T19:36:34.496Z,17.53
2019-02-22T19:39:12.096Z,18.50
2019-02-22T19:41:47.507Z,21.87
2019-02-22T19:44:23.502Z,20.27
2019-02-22T19:46:57.509Z,23.27
2019-02-22T19:49:30.783Z,20.27
2019-02-22T19:52:04.503Z,21.60
2019-02-22T19:54:39.214Z,18.57
2019-02-22T19:57:12.500Z,23.40
2019-02-22T19:59:46.005Z,22.93
2019-02-22T20:02:19.508Z,25.80
2019-02-22T20:04:53.522Z,28.30
2019-02-22T20:07:28.501Z,19.87
2019-02-22T20:10:03.065Z,20.77
2019-02-22T20:16:22.504Z,25.40
2019-02-22T20:22:38.369Z,26.73
2019-02-22T20:25:12.379Z,26.00
2019-02-22T20:27:46.187Z,27.97
2019-02-22T20:30:23.263Z,28.10
2019-02-22T20:32:57.512Z,34.03
2019-02-22T20:38:59.977Z,41.87
2019-02-22T20:41:33.985Z,49.43
2019-02-22T20:47:49.521Z,33.13
2019-02-22T20:53:51.518Z,28.20
2019-02-22T20:56:25.523Z,24.63
2019-02-22T21:02:41.538Z,20.13
2019-02-22T21:08:46.040Z,18.83
2019-02-22T21:14:48.734Z,22.93
2019-02-22T21:17:22.951Z,16.63
2019-02-22T21:23:39.989Z,19.63
2019-02-22T21:26:15.029Z,21.67
2019-02-22T21:32:18.954Z,21.10
2019-02-22T21:37:57.534Z,30.23
2019-02-22T21:40:31.539Z,20.23
2019-02-22T21:43:05.539Z,22.27
2019-02-22T21:49:22.537Z,28.27
2019-02-22T21:55:41.011Z,25.37
2019-02-22T21:58:19.117Z,24.43
2019-02-22T22:00:57.028Z,24.43
2019-02-22T22:03:33.559Z,23.37
2019-02-22T22:09:48.542Z,24.17
2019-02-22T22:12:22.543Z,23.27
2019-02-22T22:18:24.771Z,25.30
2019-02-22T22:24:27.552Z,20.43
2019-02-22T22:27:01.549Z,24.63
2019-02-22T22:29:35.546Z,23.33
2019-02-22T22:32:10.525Z,24.30
2019-02-22T22:34:46.585Z,28.00
2019-02-22T22:37:22.027Z,28.43
2019-02-22T22:39:56.549Z,25.23
2019-02-22T22:42:31.070Z,28.57
2019-02-22T22:45:07.591Z,27.33
2019-02-22T22:47:43.549Z,30.33
2019-02-22T22:50:18.554Z,33.63
2019-02-22T22:52:52.551Z,31.97
2019-02-22T22:55:25.553Z,32.37
2019-02-22T22:58:04.341Z,34.03
2019-02-22T23:00:58.553Z,35.13
2019-02-22T23:03:32.024Z,33.83
2019-02-22T23:06:06.031Z,30.97
2019-02-22T23:08:40.556Z,31.73
2019-02-22T23:11:14.556Z,32.67
2019-02-22T23:13:48.879Z,37.30
2019-02-22T23:16:25.142Z,36.63
2019-02-22T23:19:01.945Z,35.30
2019-02-22T23:21:35.003Z,34.87
2019-02-22T23:24:09.422Z,33.37
2019-02-22T23:26:43.562Z,37.30
2019-02-22T23:29:17.555Z,37.60
2019-02-22T23:31:51.557Z,36.00
2019-02-22T23:34:26.557Z,37.17
2019-02-22T23:37:01.314Z,39.77
2019-02-22T23:39:35.127Z,42.40
2019-02-22T23:42:08.555Z,39.87
2019-02-22T23:44:44.163Z,36.90
2019-02-22T23:47:19.400Z,37.93
2019-02-22T23:49:54.555Z,43.13
2019-02-22T23:52:29.057Z,39.40
2019-02-22T23:55:04.095Z,35.17
2019-02-22T23:57:39.566Z,41.23
